Washington Court House, OH

2:48 PM EST on November 27, 2014 (GMT -0500)
OHDOT 15-Fayette County Garage | Change Station
CLOSE
Current Station
Personal Weather Station
Location: Washington Court House, OH
Elevation: 1004 ft
Nearby Weather Stations

Elev 1004 ft 39.53 °N, 83.48 °W | Updated 1 day ago

Snow
Snow
35 °F
Feels Like 27 °F
N
13
Wind Variable Wind from WNW
Gusts 18 mph

Today
High -- | Low -- °F
--% Chance of Precip.
Yesterday
High -- | Low -- °F
Precip. -- in
7:31 AM 5:11 PM
Waxing Crescent, 32% visible
Pressure 30.33 in
Visibility 10.0 miles
Clouds Mostly Cloudy 2800 ft
Overcast 3600 ft
Windchill 27 °F
Dew Point 22 °F
Humidity 56%
Rainfall -999.00 in
Snow Depth Not available.
UV 1 out of 12
Pollen .10 out of 12
Air Quality Not available.
Flu Activity Not available.
METAR KILN 271854Z AUTO 28010KT 10SM BKN028 OVC036 M01/M07 A3024 RMK AO2 SLP269 T10061067

More Conditions Fewer Conditions

Pressure 30.33 in
Visibility 10.0 miles
Clouds Mostly Cloudy 2800 ft
Overcast 3600 ft
Windchill 27 °F
Dew Point 22 °F
Humidity 56%
Rainfall -999.00 in
Snow Depth Not available.
UV 1 out of 12
Pollen .10 out of 12
Air Quality Not available.
Flu Activity Not available.
METAR KILN 271854Z AUTO 28010KT 10SM BKN028 OVC036 M01/M07 A3024 RMK AO2 SLP269 T10061067

More Conditions Fewer Conditions

10-Day Weather Forecast

Almanac

Astronomy

Nov. 27, 2014 Rise Set
Actual Time
Civil Twilight
Nautical Twilight
Astronomical Twilight
Moon
Length of Visible Light
Length of Day
Tomorrow will be .
, % of the Moon is Illuminated

Today's Extremes

State Highs State Lows

Community

WunderPhotos

Upload Photos

1,774,094 photos uploaded!

WunderBlogs® & News

Nearby

Air Quality

  Air Quality AQ Index Pollutant
Not available.

Snow Depth

Station Depth Elevation

Earthquake Activity

City Distance Mag. Time & Date
Minimum magnitude displayed is 2.5.

Coastal Water Temperatures

Place Temperature

Nearby Weather Stations